Time;durP1;ratioP1;P1;durP2;ratioP2;P2;SDS_P1;SDS_P2;PMS_P1;PMS_P2;Temp;Humidity;BMP_temperature;BMP_pressure;BME280_temperature;BME280_humidity;BME280_pressure;Samples;Min_cycle;Max_cycle;Signal;HPM_P1;HPM_P2
2020/12/04 00:01:13;;;;;;;11.88;10.98;;;;;;;9.20;66.63;98203.22;5067391;28;20043;-77
2020/12/04 00:03:38;;;;;;;12.68;11.68;;;;;;;9.05;66.65;98197.59;5067967;28;20090;-76
2020/12/04 00:06:04;;;;;;;12.90;11.90;;;;;;;8.96;66.59;98199.97;5067623;28;20124;-77
2020/12/04 00:08:29;;;;;;;12.65;11.65;;;;;;;8.89;67.28;98191.19;5066221;28;20135;-78
2020/12/04 00:10:55;;;;;;;10.43;9.63;;;;;;;9.06;66.47;98177.56;5066437;28;20037;-76
2020/12/04 00:13:20;;;;;;;12.38;11.38;;;;;;;9.21;66.22;98177.75;5062930;28;20043;-77
2020/12/04 00:15:46;;;;;;;12.77;11.77;;;;;;;9.29;66.12;98171.06;5066519;28;20372;-76
2020/12/04 00:18:11;;;;;;;12.32;11.25;;;;;;;9.29;66.26;98163.72;5065696;28;20155;-76
2020/12/04 00:20:37;;;;;;;10.52;9.52;;;;;;;9.08;66.87;98161.84;5068629;28;20040;-76
2020/12/04 00:23:02;;;;;;;14.73;13.38;;;;;;;9.17;66.60;98163.06;5066427;28;20119;-76
2020/12/04 00:25:28;;;;;;;10.20;9.30;;;;;;;9.18;66.31;98150.34;5067461;28;20139;-76
2020/12/04 00:27:53;;;;;;;11.85;10.95;;;;;;;9.09;66.34;98142.63;5065000;28;20059;-76
2020/12/04 00:30:19;;;;;;;10.90;9.95;;;;;;;8.96;66.43;98134.91;5065169;28;20037;-78
2020/12/04 00:32:44;;;;;;;11.93;10.73;;;;;;;8.71;67.43;98132.69;5047810;28;20127;-78
2020/12/04 00:35:10;;;;;;;12.18;11.10;;;;;;;9.04;66.64;98136.34;5064211;28;20032;-77
2020/12/04 00:37:36;;;;;;;11.02;10.02;;;;;;;8.95;66.61;98133.25;5063629;28;20043;-76
2020/12/04 00:40:02;;;;;;;10.80;9.70;;;;;;;8.70;67.15;98123.75;5067621;28;20678;-78
2020/12/04 00:42:27;;;;;;;13.98;12.80;;;;;;;8.83;66.86;98124.44;5063025;28;20459;-77
2020/12/04 00:44:53;;;;;;;12.25;11.13;;;;;;;8.93;66.80;98109.13;5066612;28;20063;-76
2020/12/04 00:47:18;;;;;;;14.15;12.95;;;;;;;8.93;66.50;98117.25;5065148;28;20040;-76
2020/12/04 00:49:44;;;;;;;16.40;15.00;;;;;;;9.14;66.04;98109.34;5068094;28;20099;-75
2020/12/04 00:52:10;;;;;;;17.17;15.77;;;;;;;8.86;66.78;98102.25;5066428;28;20037;-77
2020/12/04 00:54:35;;;;;;;14.18;12.82;;;;;;;8.74;66.70;98092.38;5066488;28;20024;-76
2020/12/04 00:57:01;;;;;;;12.73;11.65;;;;;;;9.20;66.06;98089.34;5067686;28;20029;-76
2020/12/04 00:59:26;;;;;;;15.52;14.18;;;;;;;8.84;66.70;98078.13;5063318;28;20036;-77
2020/12/04 01:01:52;;;;;;;19.38;17.85;;;;;;;8.49;67.34;98079.31;5068679;28;20032;-78
2020/12/04 01:04:17;;;;;;;17.25;15.80;;;;;;;8.73;66.93;98076.38;5064337;28;20029;-76
2020/12/04 01:06:43;;;;;;;19.15;17.65;;;;;;;8.69;66.44;98080.66;5068463;28;20089;-77
2020/12/04 01:09:08;;;;;;;18.20;16.75;;;;;;;8.52;66.99;98076.09;5068092;28;20616;-74
2020/12/04 01:11:34;;;;;;;20.25;18.75;;;;;;;8.59;66.91;98052.34;5078693;28;20105;-77
2020/12/04 01:14:00;;;;;;;18.52;17.02;;;;;;;8.78;66.26;98052.03;5068121;28;20032;-77
2020/12/04 01:16:25;;;;;;;21.42;19.70;;;;;;;8.84;66.01;98044.78;5068054;28;20032;-76
2020/12/04 01:18:51;;;;;;;16.20;14.60;;;;;;;8.71;66.29;98040.56;5065057;28;20040;-76
2020/12/04 01:21:16;;;;;;;14.75;13.43;;;;;;;8.63;66.49;98039.13;5067699;28;20468;-76
2020/12/04 01:23:42;;;;;;;15.73;14.35;;;;;;;8.95;66.00;98043.81;5068926;28;20025;-76
2020/12/04 01:26:08;;;;;;;15.75;14.30;;;;;;;8.60;66.49;98056.72;5064130;28;20032;-76
2020/12/04 01:28:34;;;;;;;20.30;18.67;;;;;;;8.88;66.02;98026.91;5067621;28;20041;-77
2020/12/04 01:31:00;;;;;;;16.35;14.65;;;;;;;8.89;65.79;98020.44;5065022;28;20031;-77
2020/12/04 01:33:26;;;;;;;19.38;17.73;;;;;;;8.71;66.34;98030.56;5066379;28;20427;-78
2020/12/04 01:35:51;;;;;;;16.27;14.68;;;;;;;8.73;66.34;98020.28;5067900;28;20082;-76
2020/12/04 01:38:17;;;;;;;18.60;16.98;;;;;;;8.90;65.97;98012.06;5066981;28;20390;-77
2020/12/04 01:40:42;;;;;;;18.25;16.65;;;;;;;8.40;67.05;98004.97;5064481;28;20029;-76
2020/12/04 01:43:08;;;;;;;15.90;14.23;;;;;;;8.71;66.29;98016.19;5067517;28;20116;-77
2020/12/04 01:45:36;;;;;;;16.95;15.32;;;;;;;8.82;66.18;98006.25;5064064;28;20036;-77
2020/12/04 01:48:03;;;;;;;17.35;15.85;;;;;;;8.67;66.41;98002.31;5066549;28;20036;-77
2020/12/04 01:50:29;;;;;;;15.50;14.05;;;;;;;8.35;67.24;97991.38;5064150;28;20429;-77
2020/12/04 01:52:56;;;;;;;18.50;16.92;;;;;;;8.69;66.29;97988.53;5065705;28;20017;-77
2020/12/04 01:55:21;;;;;;;16.45;14.77;;;;;;;8.43;66.74;97985.50;5068447;28;20413;-75
2020/12/04 01:57:47;;;;;;;16.13;14.48;;;;;;;8.54;66.40;97986.47;5065685;28;20032;-78
2020/12/04 02:00:13;;;;;;;19.58;17.88;;;;;;;8.58;66.71;97980.28;5069532;28;20582;-78
2020/12/04 02:02:43;;;;;;;17.48;15.88;;;;;;;8.81;66.02;97970.22;5065952;28;20055;-76
2020/12/04 02:05:09;;;;;;;16.67;15.18;;;;;;;8.49;66.72;97975.59;5063393;28;20228;-78
2020/12/04 02:07:58;;;;;;;15.48;13.90;;;;;;;8.67;66.33;97974.44;5063694;28;20041;-76
2020/12/04 02:10:36;;;;;;;15.90;14.38;;;;;;;8.73;66.30;97959.88;5061622;28;20135;-77
2020/12/04 02:13:02;;;;;;;15.40;13.82;;;;;;;8.42;67.21;97959.50;5065166;28;20035;-77
2020/12/04 02:15:28;;;;;;;15.55;13.35;;;;;;;8.45;67.32;97964.44;5065298;28;20024;-77
2020/12/04 02:17:56;;;;;;;18.08;16.17;;;;;;;8.64;66.98;97956.78;5063136;28;20206;-76
2020/12/04 02:20:21;;;;;;;17.42;15.65;;;;;;;8.42;67.50;97964.94;5067482;28;20127;-76
2020/12/04 02:22:47;;;;;;;15.70;14.30;;;;;;;8.19;67.76;97958.69;5061618;28;20163;-77
2020/12/04 02:25:13;;;;;;;18.40;16.15;;;;;;;8.61;67.01;97943.75;5068080;28;20028;-75
2020/12/04 02:27:48;;;;;;;16.48;14.90;;;;;;;8.51;67.31;97933.63;5063409;28;20680;-77
2020/12/04 02:30:25;;;;;;;16.52;15.02;;;;;;;8.31;67.63;97945.03;5066169;28;20487;-78
2020/12/04 02:32:50;;;;;;;16.65;15.15;;;;;;;8.46;67.80;97935.47;5062757;28;20024;-76
2020/12/04 02:35:16;;;;;;;18.25;12.20;;;;;;;8.58;66.99;97950.50;5066622;28;20028;-75
2020/12/04 02:37:41;;;;;;;12.93;11.57;;;;;;;8.75;66.84;97934.13;5066844;28;20024;-76
2020/12/04 02:40:06;;;;;;;14.73;13.32;;;;;;;8.31;67.68;97928.78;5065909;28;20044;-78
2020/12/04 02:42:32;;;;;;;14.23;12.90;;;;;;;8.55;67.10;97909.56;5064941;28;20126;-77
2020/12/04 02:44:57;;;;;;;12.77;10.88;;;;;;;8.45;67.33;97907.56;5065492;28;20037;-78
2020/12/04 02:47:26;;;;;;;12.18;10.95;;;;;;;8.56;66.62;97892.25;5067032;28;20043;-76
2020/12/04 02:49:52;;;;;;;12.60;11.40;;;;;;;8.72;66.79;97882.34;5066001;28;20020;-77
2020/12/04 02:52:24;;;;;;;14.90;13.27;;;;;;;8.35;67.58;97880.34;5067909;28;20510;-77
2020/12/04 02:54:50;;;;;;;13.30;12.00;;;;;;;8.34;67.67;97895.78;5064245;28;20036;-77
2020/12/04 02:57:15;;;;;;;14.07;12.73;;;;;;;8.21;67.81;97888.06;5065994;28;20097;-77
2020/12/04 02:59:41;;;;;;;13.82;12.52;;;;;;;8.48;67.50;97879.16;5066206;28;20036;-76
2020/12/04 03:02:06;;;;;;;12.95;11.75;;;;;;;8.40;67.64;97888.50;5064040;28;20036;-76
2020/12/04 03:04:32;;;;;;;13.23;11.82;;;;;;;8.49;67.11;97878.09;5064644;28;20437;-78
2020/12/04 03:06:57;;;;;;;12.88;11.68;;;;;;;8.55;67.21;97877.06;5066879;28;20024;-77
2020/12/04 03:09:22;;;;;;;17.90;16.25;;;;;;;8.45;67.22;97863.41;5064943;28;20036;-79
2020/12/04 03:11:48;;;;;;;14.68;13.32;;;;;;;8.53;67.08;97865.66;5067608;28;20052;-77
2020/12/04 03:14:13;;;;;;;17.38;15.85;;;;;;;8.25;67.90;97854.81;5063045;28;20470;-76
2020/12/04 03:16:39;;;;;;;13.85;12.52;;;;;;;8.46;67.40;97843.38;5063860;28;20048;-78
2020/12/04 03:19:04;;;;;;;13.40;12.10;;;;;;;8.28;67.59;97845.38;5070545;28;20517;-77
2020/12/04 03:21:30;;;;;;;17.35;14.02;;;;;;;8.48;67.21;97830.41;5067738;28;20028;-76
2020/12/04 03:23:56;;;;;;;13.65;12.30;;;;;;;8.30;67.77;97842.41;5069122;28;20082;-78
2020/12/04 03:26:21;;;;;;;13.00;11.70;;;;;;;8.46;67.17;97827.13;5067323;28;20353;-77
2020/12/04 03:28:46;;;;;;;14.45;12.98;;;;;;;8.19;68.36;97822.53;5068255;28;20445;-78
2020/12/04 03:31:12;;;;;;;14.77;13.38;;;;;;;8.27;68.12;97821.25;5067127;28;20035;-78
2020/12/04 03:33:38;;;;;;;14.38;12.95;;;;;;;8.41;67.80;97809.72;5070543;28;20116;-78
2020/12/04 03:36:03;;;;;;;14.68;13.18;;;;;;;8.27;68.17;97818.56;5065137;28;20390;-77
2020/12/04 03:38:29;;;;;;;12.05;10.85;;;;;;;8.27;68.03;97805.00;5071000;28;20049;-78
2020/12/04 03:40:54;;;;;;;13.82;12.27;;;;;;;8.29;67.81;97808.28;5069576;28;20485;-79
2020/12/04 03:43:19;;;;;;;14.85;13.32;;;;;;;8.65;67.46;97809.44;5069776;28;20509;-77
2020/12/04 03:45:45;;;;;;;21.52;19.67;;;;;;;8.38;68.05;97804.03;5070150;28;20024;-78
2020/12/04 03:48:10;;;;;;;17.23;15.73;;;;;;;8.24;68.29;97799.03;5069545;28;20675;-79
2020/12/04 03:50:36;;;;;;;13.82;12.60;;;;;;;8.30;68.06;97791.78;5064086;28;20091;-76
2020/12/04 03:53:01;;;;;;;15.32;12.90;;;;;;;8.46;67.50;97779.19;5068204;28;20486;-77
2020/12/04 03:55:26;;;;;;;14.07;12.77;;;;;;;8.46;67.41;97787.31;5068779;28;20040;-78
2020/12/04 03:57:52;;;;;;;15.27;13.88;;;;;;;8.39;67.72;97778.59;5071321;28;20039;-77
2020/12/04 04:00:17;;;;;;;15.70;14.30;;;;;;;8.63;67.40;97786.38;5052293;28;20043;-76
2020/12/04 04:02:43;;;;;;;13.25;11.85;;;;;;;8.50;67.29;97788.44;5069001;28;20040;-77
2020/12/04 04:05:08;;;;;;;14.23;12.93;;;;;;;8.40;67.63;97778.34;5070843;28;20032;-77
2020/12/04 04:07:33;;;;;;;14.65;13.35;;;;;;;8.58;67.06;97765.50;5063560;28;20065;-76
2020/12/04 04:09:59;;;;;;;12.90;11.70;;;;;;;8.49;67.15;97767.03;5068815;28;20036;-76
2020/12/04 04:12:24;;;;;;;13.73;12.43;;;;;;;8.85;66.48;97775.41;5077287;28;20512;-77
2020/12/04 04:14:50;;;;;;;14.48;13.05;;;;;;;8.95;65.95;97778.19;5067162;28;20101;-77
2020/12/04 04:17:15;;;;;;;11.80;10.55;;;;;;;8.71;66.58;97769.63;5063707;28;20437;-76
2020/12/04 04:19:40;;;;;;;12.52;11.32;;;;;;;8.84;66.47;97760.25;5067841;28;20421;-78
2020/12/04 04:22:06;;;;;;;12.38;11.10;;;;;;;8.83;66.54;97775.69;5065670;28;20032;-76
2020/12/04 04:24:31;;;;;;;8.75;7.95;;;;;;;8.90;66.56;97764.63;5068762;28;20061;-77
2020/12/04 04:26:56;;;;;;;8.93;8.23;;;;;;;8.71;66.71;97761.50;5065829;28;20033;-77
2020/12/04 04:29:22;;;;;;;10.13;9.27;;;;;;;8.74;67.16;97748.28;5069360;28;20063;-77
2020/12/04 04:31:51;;;;;;;11.80;10.77;;;;;;;8.70;66.67;97755.28;5068981;28;20032;-78
2020/12/04 04:34:17;;;;;;;13.30;12.18;;;;;;;8.80;66.59;97751.81;5069311;28;20438;-79
2020/12/04 04:36:42;;;;;;;12.70;10.65;;;;;;;8.67;67.28;97741.44;5068694;28;20090;-76
2020/12/04 04:39:08;;;;;;;10.15;8.63;;;;;;;8.93;66.43;97755.97;5068222;28;20056;-79
2020/12/04 04:41:33;;;;;;;8.30;7.50;;;;;;;8.82;66.90;97735.28;5068376;28;20506;-79
2020/12/04 04:43:58;;;;;;;11.60;10.60;;;;;;;9.04;66.16;97735.97;5048227;28;20041;-77
2020/12/04 04:46:27;;;;;;;12.50;11.38;;;;;;;8.96;65.90;97733.75;5068365;28;20044;-78
2020/12/04 04:48:58;;;;;;;10.50;9.70;;;;;;;9.03;65.94;97728.09;5067946;28;21404;-76
2020/12/04 04:51:24;;;;;;;10.10;9.20;;;;;;;9.08;65.93;97741.66;5070110;28;20040;-77
2020/12/04 04:53:58;;;;;;;8.95;7.78;;;;;;;9.02;65.56;97738.13;5069655;28;20057;-77
2020/12/04 04:56:23;;;;;;;8.88;8.10;;;;;;;9.12;65.48;97740.88;5064820;28;20070;-76
2020/12/04 04:58:49;;;;;;;12.85;11.85;;;;;;;9.07;65.24;97738.16;5068606;28;20403;-77
2020/12/04 05:01:15;;;;;;;10.10;9.15;;;;;;;9.18;65.04;97747.16;5065843;28;20174;-77
2020/12/04 05:03:40;;;;;;;8.82;7.93;;;;;;;9.09;65.45;97743.31;5067179;28;20395;-77
2020/12/04 05:06:05;;;;;;;9.02;8.27;;;;;;;9.13;65.79;97728.16;5067520;28;20031;-76
2020/12/04 05:08:31;;;;;;;10.20;9.40;;;;;;;9.17;65.23;97715.69;5068476;28;20149;-75
2020/12/04 05:11:08;;;;;;;8.68;7.97;;;;;;;9.20;65.89;97733.31;5063431;28;20506;-77
2020/12/04 05:13:33;;;;;;;9.48;8.68;;;;;;;9.31;64.79;97735.00;5067269;28;20510;-76
2020/12/04 05:15:59;;;;;;;7.32;6.72;;;;;;;9.23;65.57;97739.03;5066784;28;20032;-77
2020/12/04 05:18:24;;;;;;;12.18;11.23;;;;;;;8.89;66.00;97733.97;5067560;28;20040;-76
2020/12/04 05:20:54;;;;;;;8.38;7.78;;;;;;;9.00;65.34;97736.75;5061487;28;20032;-77
2020/12/04 05:23:21;;;;;;;8.52;7.72;;;;;;;9.32;64.90;97742.84;5067230;28;20037;-76
2020/12/04 05:25:48;;;;;;;8.13;7.43;;;;;;;9.34;64.56;97737.16;5064745;28;20025;-77
2020/12/04 05:28:25;;;;;;;7.10;6.60;;;;;;;9.11;65.17;97746.56;5082022;28;20043;-77
2020/12/04 05:31:06;;;;;;;8.27;7.60;;;;;;;9.17;65.07;97740.09;5055351;28;20059;-77
2020/12/04 05:33:32;;;;;;;;;;;;;;;9.16;64.78;97733.06;5067580;28;20063;-76
2020/12/04 05:35:59;;;;;;;5.70;5.30;;;;;;;9.42;64.67;97733.13;5067231;28;20346;-76
2020/12/04 05:38:24;;;;;;;6.90;6.40;;;;;;;9.29;64.69;97726.31;5065476;28;20051;-76
2020/12/04 05:40:52;;;;;;;5.43;4.93;;;;;;;9.06;65.02;97733.00;5058017;28;20495;-77
2020/12/04 05:43:29;;;;;;;4.63;4.22;;;;;;;9.18;65.14;97727.38;5066139;28;20047;-76
2020/12/04 05:46:11;;;;;;;4.63;3.80;;;;;;;9.22;64.72;97723.84;5066259;28;20105;-77
2020/12/04 05:48:36;;;;;;;5.45;5.05;;;;;;;9.29;64.65;97720.88;5067282;28;20119;-77
2020/12/04 05:51:02;;;;;;;5.35;4.95;;;;;;;9.36;64.61;97713.34;5067091;28;20359;-77
2020/12/04 05:53:28;;;;;;;6.00;5.53;;;;;;;9.48;64.23;97716.63;5068994;28;20032;-76
2020/12/04 05:55:54;;;;;;;4.68;4.28;;;;;;;9.13;65.17;97706.47;5079736;28;20707;-77
2020/12/04 05:58:25;;;;;;;5.13;4.72;;;;;;;9.26;65.10;97705.97;5080440;28;20055;-77
2020/12/04 06:00:50;;;;;;;7.10;5.53;;;;;;;9.18;65.31;97721.94;5063076;28;20131;-77
2020/12/04 06:03:15;;;;;;;5.57;5.13;;;;;;;9.36;65.02;97709.78;5065741;28;20429;-76
2020/12/04 06:05:41;;;;;;;6.28;5.82;;;;;;;9.47;64.50;97717.69;5066457;28;20563;-77
2020/12/04 06:08:06;;;;;;;6.05;5.55;;;;;;;9.58;64.64;97726.69;5065582;28;20032;-76
2020/12/04 06:10:34;;;;;;;6.65;6.07;;;;;;;9.23;65.52;97722.75;5069139;28;20067;-76
2020/12/04 06:13:00;;;;;;;4.43;4.13;;;;;;;9.20;65.55;97727.91;5064675;28;20471;-77
2020/12/04 06:15:31;;;;;;;6.55;5.35;;;;;;;9.23;65.17;97722.75;5062902;28;20029;-76
2020/12/04 06:18:14;;;;;;;4.50;4.10;;;;;;;9.24;65.40;97734.44;5065880;28;20029;-77
2020/12/04 06:20:46;;;;;;;5.28;4.88;;;;;;;9.46;64.70;97729.63;5067334;28;20072;-77
2020/12/04 06:23:13;;;;;;;7.68;7.20;;;;;;;9.32;65.27;97726.59;5064241;28;20024;-76
2020/12/04 06:25:50;;;;;;;6.85;6.40;;;;;;;9.34;64.87;97728.22;5065746;28;20089;-77
2020/12/04 06:28:17;;;;;;;6.75;6.35;;;;;;;9.29;65.06;97731.75;5062756;28;20051;-78
2020/12/04 06:31:09;;;;;;;5.30;5.00;;;;;;;9.67;64.34;97733.22;5067513;28;20089;-76
2020/12/04 06:33:49;;;;;;;7.13;6.55;;;;;;;9.61;64.34;97731.56;5060318;28;20436;-77
2020/12/04 06:36:33;;;;;;;5.90;5.45;;;;;;;9.64;64.37;97719.38;5065281;28;20036;-76
2020/12/04 06:39:00;;;;;;;5.72;4.55;;;;;;;9.75;64.22;97729.16;5066098;28;20098;-76
2020/12/04 06:41:33;;;;;;;5.90;5.53;;;;;;;9.44;64.98;97747.25;5063422;28;20078;-77
2020/12/04 06:44:07;;;;;;;6.25;5.85;;;;;;;9.65;64.35;97735.41;5065860;28;20403;-76
2020/12/04 06:46:41;;;;;;;5.47;5.05;;;;;;;9.99;63.38;97734.09;5065016;28;20437;-77
2020/12/04 06:51:56;;;;;;;7.53;7.13;;;;;;;10.05;63.47;97727.56;5068914;28;20465;-76
2020/12/04 06:54:21;;;;;;;7.70;7.20;;;;;;;9.72;63.89;97732.41;5064471;28;20626;-78
2020/12/04 06:56:49;;;;;;;8.23;7.72;;;;;;;9.88;63.74;97718.88;5067140;28;20032;-75
2020/12/04 06:59:20;;;;;;;5.90;5.55;;;;;;;9.73;64.07;97723.19;5065984;28;20054;-76
2020/12/04 07:01:45;;;;;;;9.63;9.13;;;;;;;9.78;63.76;97719.69;5066599;28;20033;-75
2020/12/04 07:04:11;;;;;;;8.77;8.07;;;;;;;9.73;64.14;97728.63;5063914;28;20048;-76
2020/12/04 07:06:36;;;;;;;7.55;7.07;;;;;;;9.85;63.91;97731.06;5066967;28;20129;-76
2020/12/04 07:09:03;;;;;;;7.45;6.75;;;;;;;9.70;63.96;97731.88;5067294;28;20040;-78
2020/12/04 07:11:30;;;;;;;6.10;5.78;;;;;;;9.64;64.14;97751.94;5066702;28;20178;-76
2020/12/04 07:13:57;;;;;;;9.13;8.63;;;;;;;9.89;63.81;97745.75;5065675;28;20153;-77
2020/12/04 07:16:24;;;;;;;14.48;13.65;;;;;;;9.64;64.04;97746.50;5066417;28;20071;-77
2020/12/04 07:18:50;;;;;;;5.63;5.15;;;;;;;10.10;62.90;97746.59;5066727;28;20036;-76
2020/12/04 07:21:16;;;;;;;4.88;4.57;;;;;;;9.65;63.72;97750.84;5066363;28;20483;-76
2020/12/04 07:23:42;;;;;;;7.93;7.43;;;;;;;9.98;63.29;97759.63;5065674;28;20028;-77
2020/12/04 07:26:15;;;;;;;11.82;11.02;;;;;;;9.97;63.02;97766.94;5065168;28;20750;-76
2020/12/04 07:28:41;;;;;;;9.38;8.73;;;;;;;10.04;62.84;97756.63;5064172;28;20077;-75
2020/12/04 07:31:20;;;;;;;4.13;3.83;;;;;;;10.01;62.90;97778.09;5063803;28;20032;-76
2020/12/04 07:33:53;;;;;;;4.32;3.92;;;;;;;9.90;63.57;97779.97;5065714;28;20029;-74
2020/12/04 07:36:19;;;;;;;6.53;5.93;;;;;;;9.74;63.62;97786.41;5067532;28;20047;-77
2020/12/04 07:39:01;;;;;;;4.88;4.45;;;;;;;10.01;62.97;97795.19;5082196;28;20064;-76
2020/12/04 07:41:31;;;;;;;6.75;5.78;;;;;;;10.02;62.94;97799.53;5064921;28;20033;-79
2020/12/04 07:44:00;;;;;;;3.85;3.65;;;;;;;10.06;62.60;97801.72;5063849;28;20024;-77
2020/12/04 07:46:26;;;;;;;4.72;4.43;;;;;;;9.99;62.66;97802.78;5063420;28;20437;-76
2020/12/04 07:49:12;;;;;;;7.03;3.60;;;;;;;10.11;62.57;97799.00;5065630;28;20025;-77
2020/12/04 07:51:41;;;;;;;6.53;5.97;;;;;;;9.95;62.49;97814.44;5055530;28;20376;-76
2020/12/04 07:54:27;;;;;;;9.20;8.55;;;;;;;10.06;62.38;97815.28;5066244;28;20115;-77
2020/12/04 07:56:54;;;;;;;9.07;8.57;;;;;;;10.19;62.13;97831.03;5064382;28;20049;-76
2020/12/04 07:59:40;;;;;;;11.70;11.05;;;;;;;10.12;62.05;97814.22;5066168;28;20064;-76
2020/12/04 08:02:07;;;;;;;10.75;10.20;;;;;;;9.92;62.50;97828.56;5063231;28;20475;-77
2020/12/04 08:04:34;;;;;;;6.00;5.60;;;;;;;10.06;62.28;97829.66;5066439;28;20417;-77
2020/12/04 08:07:12;;;;;;;6.03;5.57;;;;;;;10.00;62.75;97836.97;5065541;28;20390;-75
2020/12/04 08:09:43;;;;;;;7.03;6.72;;;;;;;10.35;61.64;97838.19;5068648;28;20055;-77
2020/12/04 08:12:14;;;;;;;6.82;6.40;;;;;;;10.23;61.13;97847.63;5068653;28;20024;-76
2020/12/04 08:14:48;;;;;;;7.35;7.05;;;;;;;10.13;61.46;97856.56;5068799;28;20040;-75
2020/12/04 08:17:17;;;;;;;8.52;8.02;;;;;;;10.21;61.30;97850.63;5065684;28;20036;-77
2020/12/04 08:19:43;;;;;;;5.68;5.38;;;;;;;10.34;61.25;97860.19;5067983;28;20047;-76
2020/12/04 08:22:08;;;;;;;11.00;9.52;;;;;;;10.32;60.89;97860.41;5067682;28;20514;-75
2020/12/04 08:24:36;;;;;;;4.57;4.38;;;;;;;10.32;60.47;97863.13;5069234;28;20032;-76
2020/12/04 08:27:10;;;;;;;8.25;7.68;;;;;;;10.33;60.61;97875.66;5069179;28;20139;-76
2020/12/04 08:29:37;;;;;;;6.00;5.40;;;;;;;10.45;60.57;97877.31;5067254;28;20103;-77
2020/12/04 08:32:11;;;;;;;5.45;5.25;;;;;;;10.39;60.64;97874.59;5065731;28;20040;-76
2020/12/04 08:34:37;;;;;;;9.75;9.25;;;;;;;10.43;60.41;97882.22;5067389;28;20028;-77
2020/12/04 08:37:06;;;;;;;8.73;8.18;;;;;;;10.28;60.36;97910.91;5065900;28;20079;-76
2020/12/04 08:39:47;;;;;;;7.20;6.45;;;;;;;10.21;59.91;97929.38;5067177;28;20075;-78
2020/12/04 08:42:22;;;;;;;5.63;4.50;;;;;;;10.32;59.76;97924.81;5065248;28;20063;-76
2020/12/04 08:45:14;;;;;;;6.03;5.53;;;;;;;10.36;59.22;97937.63;5068113;28;20120;-76
2020/12/04 08:47:45;;;;;;;4.00;3.70;;;;;;;10.38;59.16;97938.16;5067158;28;20044;-75
2020/12/04 08:50:21;;;;;;;3.03;2.83;;;;;;;10.25;59.13;97949.47;5070023;28;20089;-75
2020/12/04 08:52:51;;;;;;;2.20;1.98;;;;;;;10.09;58.75;97947.81;5069038;28;21232;-76
2020/12/04 08:55:19;;;;;;;2.50;2.40;;;;;;;10.35;58.64;97965.84;5071189;28;20083;-75
2020/12/04 08:57:45;;;;;;;2.72;2.63;;;;;;;10.51;58.71;97964.00;5071866;28;20028;-75
2020/12/04 09:00:14;;;;;;;3.78;3.58;;;;;;;10.43;59.00;97969.97;5062819;28;20119;-77
2020/12/04 09:02:40;;;;;;;5.28;4.50;;;;;;;10.39;58.95;97966.13;5065529;28;20094;-76
2020/12/04 09:05:07;;;;;;;2.53;2.42;;;;;;;10.34;58.62;97985.13;5065323;28;20029;-76
2020/12/04 09:07:33;;;;;;;5.60;5.20;;;;;;;10.66;58.10;97978.69;5064807;28;20051;-75
2020/12/04 09:09:58;;;;;;;6.85;6.55;;;;;;;10.51;58.14;97984.91;5064253;28;20036;-75
2020/12/04 09:12:24;;;;;;;5.10;4.90;;;;;;;10.59;58.09;97984.38;5048454;28;20041;-77
2020/12/04 09:14:50;;;;;;;5.05;4.82;;;;;;;10.36;58.35;97983.78;5063559;28;20040;-75
2020/12/04 09:17:16;;;;;;;4.43;4.22;;;;;;;10.55;57.54;97986.00;5068698;28;20108;-75
2020/12/04 09:19:41;;;;;;;4.35;3.92;;;;;;;10.69;57.57;97981.72;5065172;28;20112;-77
2020/12/04 09:22:07;;;;;;;5.57;5.38;;;;;;;10.52;58.01;97992.81;5066381;28;20711;-76
2020/12/04 09:24:32;;;;;;;4.50;4.30;;;;;;;10.47;58.41;97989.25;5067530;28;20029;-75
2020/12/04 09:26:58;;;;;;;4.72;4.32;;;;;;;10.44;58.20;98006.06;5064078;28;20044;-76
2020/12/04 09:29:23;;;;;;;4.95;4.75;;;;;;;10.71;57.90;98005.91;5066083;28;20032;-76
2020/12/04 09:31:49;;;;;;;3.42;3.30;;;;;;;10.59;57.61;98014.28;5063860;28;20809;-76
2020/12/04 09:34:14;;;;;;;4.57;4.28;;;;;;;10.80;56.89;98015.19;5066967;28;20643;-76
2020/12/04 09:36:40;;;;;;;4.72;4.45;;;;;;;11.13;56.14;98006.81;5065508;28;20035;-77
2020/12/04 09:39:05;;;;;;;7.10;6.80;;;;;;;10.78;56.30;98011.09;5067134;28;20511;-75
2020/12/04 09:41:31;;;;;;;3.65;3.35;;;;;;;11.01;55.86;98024.16;5066293;28;20052;-76
2020/12/04 09:43:56;;;;;;;4.07;3.78;;;;;;;10.78;56.40;98027.38;5063885;28;20028;-76
2020/12/04 09:46:21;;;;;;;4.40;4.05;;;;;;;10.83;56.41;98027.41;5066647;28;20032;-75
2020/12/04 09:48:47;;;;;;;4.13;3.92;;;;;;;10.88;56.58;98035.59;5082681;28;20475;-76
2020/12/04 09:51:12;;;;;;;5.18;4.97;;;;;;;10.87;56.44;98053.78;5063637;28;20036;-76
2020/12/04 09:53:37;;;;;;;4.00;3.80;;;;;;;11.19;55.78;98060.13;5065004;28;20478;-74
2020/12/04 09:56:03;;;;;;;4.13;3.92;;;;;;;11.94;53.91;98062.34;5063736;28;20029;-74
2020/12/04 09:58:28;;;;;;;7.97;7.57;;;;;;;12.80;52.03;98065.09;5066033;28;20043;-75
2020/12/04 10:00:53;;;;;;;3.80;3.60;;;;;;;12.91;51.17;98077.59;5067345;28;20074;-75
2020/12/04 10:03:19;;;;;;;4.78;4.57;;;;;;;12.28;51.70;98080.81;5066981;28;20510;-77
2020/12/04 10:05:44;;;;;;;3.92;3.63;;;;;;;11.81;52.12;98086.28;5063562;28;20032;-76
2020/12/04 10:08:10;;;;;;;4.68;4.28;;;;;;;11.86;52.81;98073.75;5064774;28;20054;-77
2020/12/04 10:10:35;;;;;;;3.65;3.25;;;;;;;11.61;53.61;98081.66;5065318;28;20040;-77
2020/12/04 10:13:00;;;;;;;5.93;5.63;;;;;;;11.41;53.90;98078.94;5063542;28;20043;-76
2020/12/04 10:15:26;;;;;;;2.67;1.40;;;;;;;11.56;53.55;98083.56;5080033;28;20494;-75
2020/12/04 10:17:51;;;;;;;2.92;2.83;;;;;;;11.37;54.28;98081.38;5059086;28;20509;-76
2020/12/04 10:20:17;;;;;;;3.75;3.30;;;;;;;11.23;54.48;98083.81;5066090;28;20033;-77
2020/12/04 10:22:42;;;;;;;2.40;2.15;;;;;;;11.08;54.56;98092.72;5062198;28;20056;-75
2020/12/04 10:25:07;;;;;;;3.08;2.88;;;;;;;11.11;55.08;98091.38;5066594;28;20436;-77
2020/12/04 10:27:33;;;;;;;2.58;2.00;;;;;;;11.34;54.69;98095.53;5065963;28;20043;-75
2020/12/04 10:29:58;;;;;;;3.38;3.17;;;;;;;11.36;54.93;98087.09;5062090;28;20048;-76
2020/12/04 10:32:24;;;;;;;3.85;3.45;;;;;;;11.42;55.03;98099.63;5079067;28;20025;-75
2020/12/04 10:34:49;;;;;;;4.20;3.60;;;;;;;11.25;55.42;98097.13;5061293;28;20040;-76
2020/12/04 10:37:15;;;;;;;3.53;3.33;;;;;;;11.38;55.00;98102.03;5065030;28;20086;-75
2020/12/04 10:39:40;;;;;;;7.85;7.35;;;;;;;10.83;56.03;98104.34;5065994;28;20405;-77
2020/12/04 10:42:05;;;;;;;4.20;3.90;;;;;;;10.97;55.77;98118.28;5065313;28;20074;-76
2020/12/04 10:44:32;;;;;;;3.60;3.40;;;;;;;11.09;55.58;98121.59;5064141;28;20036;-76
2020/12/04 10:46:59;;;;;;;3.17;2.92;;;;;;;11.17;55.54;98117.53;5062974;28;20034;-77
2020/12/04 10:49:25;;;;;;;4.55;3.88;;;;;;;10.83;55.83;98111.69;5061797;28;20064;-77
2020/12/04 10:51:55;;;;;;;3.97;2.65;;;;;;;11.08;55.59;98117.22;5064067;28;20060;-78
2020/12/04 10:54:21;;;;;;;6.53;6.13;;;;;;;11.16;55.08;98120.50;5064287;28;20899;-77
2020/12/04 10:56:46;;;;;;;5.30;5.00;;;;;;;10.91;55.86;98124.78;5063582;28;20036;-76
2020/12/04 10:59:11;;;;;;;3.17;2.97;;;;;;;11.08;55.30;98144.41;5064047;28;20040;-76
2020/12/04 11:01:42;;;;;;;3.78;3.47;;;;;;;10.80;55.63;98133.94;5065195;28;20029;-76
2020/12/04 11:06:51;;;;;;;3.22;3.00;;;;;;;11.10;55.58;98155.84;5062258;28;20051;-77
2020/12/04 11:09:17;;;;;;;4.30;3.67;;;;;;;11.16;55.18;98158.59;5065015;28;20739;-77
2020/12/04 11:11:42;;;;;;;4.47;3.95;;;;;;;10.96;55.88;98156.59;5059067;28;20151;-75
2020/12/04 11:14:07;;;;;;;3.42;3.22;;;;;;;11.09;56.00;98165.09;5065458;28;20421;-78
2020/12/04 11:16:33;;;;;;;4.97;4.57;;;;;;;11.21;55.98;98164.03;5064674;28;20071;-75
2020/12/04 11:18:58;;;;;;;4.47;3.88;;;;;;;11.01;56.21;98159.34;5065954;28;20486;-76
2020/12/04 11:21:28;;;;;;;3.03;2.83;;;;;;;11.16;56.08;98169.47;5057208;28;20062;-77
2020/12/04 11:23:54;;;;;;;5.57;5.18;;;;;;;11.23;56.37;98168.13;5064032;28;20025;-77
2020/12/04 11:26:19;;;;;;;5.45;5.18;;;;;;;11.34;56.45;98173.59;5064152;28;20036;-79
2020/12/04 11:28:45;;;;;;;6.20;5.85;;;;;;;11.33;56.22;98166.53;5064506;28;20028;-79
2020/12/04 11:31:10;;;;;;;8.98;8.48;;;;;;;11.45;55.79;98169.84;5064889;28;20502;-77
2020/12/04 11:33:35;;;;;;;4.65;4.35;;;;;;;11.32;56.08;98176.56;5059914;28;20041;-77
2020/12/04 11:36:01;;;;;;;4.70;3.47;;;;;;;11.52;55.48;98183.97;5064139;28;20052;-77
2020/12/04 11:38:26;;;;;;;3.78;3.55;;;;;;;11.47;55.33;98176.63;5062100;28;20039;-80